sensor_id;sensor_type;location;lat;lon;timestamp;pressure;altitude;pressure_sealevel;temperature;humidity
46782;BME280;32541;46.298;11.506;2023-12-29T00:00:40;89975.28;;;1.71;89.41
46782;BME280;32541;46.298;11.506;2023-12-29T00:03:06;89975.44;;;1.78;89.40
46782;BME280;32541;46.298;11.506;2023-12-29T00:05:31;89970.88;;;1.86;89.17
46782;BME280;32541;46.298;11.506;2023-12-29T00:07:56;89963.16;;;1.90;89.16
46782;BME280;32541;46.298;11.506;2023-12-29T00:10:22;89956.22;;;1.95;89.19
46782;BME280;32541;46.298;11.506;2023-12-29T00:12:47;89960.06;;;1.99;88.51
46782;BME280;32541;46.298;11.506;2023-12-29T00:15:13;89961.75;;;2.02;88.57
46782;BME280;32541;46.298;11.506;2023-12-29T00:17:42;89959.78;;;2.03;88.71
46782;BME280;32541;46.298;11.506;2023-12-29T00:20:07;89958.94;;;2.08;88.55
46782;BME280;32541;46.298;11.506;2023-12-29T00:22:33;89954.25;;;2.08;89.15
46782;BME280;32541;46.298;11.506;2023-12-29T00:24:59;89952.81;;;2.07;89.48
46782;BME280;32541;46.298;11.506;2023-12-29T00:27:24;89943.84;;;2.12;89.41
46782;BME280;32541;46.298;11.506;2023-12-29T00:29:50;89946.47;;;2.18;89.35
46782;BME280;32541;46.298;11.506;2023-12-29T00:32:15;89940.53;;;2.19;89.41
46782;BME280;32541;46.298;11.506;2023-12-29T00:34:40;89938.03;;;2.21;89.47
46782;BME280;32541;46.298;11.506;2023-12-29T00:37:06;89939.31;;;2.34;89.14
46782;BME280;32541;46.298;11.506;2023-12-29T00:39:31;89946.53;;;2.44;88.55
46782;BME280;32541;46.298;11.506;2023-12-29T00:42:06;89945.31;;;2.58;88.15
46782;BME280;32541;46.298;11.506;2023-12-29T00:44:32;89926.69;;;2.36;88.67
46782;BME280;32541;46.298;11.506;2023-12-29T00:46:57;89926.75;;;2.17;88.72
46782;BME280;32541;46.298;11.506;2023-12-29T00:49:23;89929.34;;;2.10;89.09
46782;BME280;32541;46.298;11.506;2023-12-29T00:51:48;89925.91;;;2.09;89.85
46782;BME280;32541;46.298;11.506;2023-12-29T00:54:14;89921.31;;;2.17;89.99
46782;BME280;32541;46.298;11.506;2023-12-29T00:56:39;89915.69;;;2.15;90.24
46782;BME280;32541;46.298;11.506;2023-12-29T00:59:05;89918.63;;;2.17;90.13
46782;BME280;32541;46.298;11.506;2023-12-29T01:01:34;89916.34;;;2.21;89.97
46782;BME280;32541;46.298;11.506;2023-12-29T01:04:00;89905.19;;;2.25;89.70
46782;BME280;32541;46.298;11.506;2023-12-29T01:06:25;89906.63;;;2.26;89.84
46782;BME280;32541;46.298;11.506;2023-12-29T01:08:51;89913.53;;;2.27;89.79
46782;BME280;32541;46.298;11.506;2023-12-29T01:11:16;89915.00;;;2.28;89.97
46782;BME280;32541;46.298;11.506;2023-12-29T01:13:42;89916.97;;;2.28;89.96
46782;BME280;32541;46.298;11.506;2023-12-29T01:16:07;89927.84;;;2.28;91.01
46782;BME280;32541;46.298;11.506;2023-12-29T01:18:32;89929.72;;;2.33;90.55
46782;BME280;32541;46.298;11.506;2023-12-29T01:20:58;89933.47;;;2.30;90.87
46782;BME280;32541;46.298;11.506;2023-12-29T01:23:23;89930.78;;;2.56;90.51
46782;BME280;32541;46.298;11.506;2023-12-29T01:25:49;89933.09;;;2.52;89.82
46782;BME280;32541;46.298;11.506;2023-12-29T01:28:14;89931.63;;;2.06;92.18
46782;BME280;32541;46.298;11.506;2023-12-29T01:30:39;89940.16;;;1.97;92.11
46782;BME280;32541;46.298;11.506;2023-12-29T01:33:05;89946.31;;;1.97;92.15
46782;BME280;32541;46.298;11.506;2023-12-29T01:35:30;89947.03;;;1.98;91.86
46782;BME280;32541;46.298;11.506;2023-12-29T01:37:55;89948.72;;;2.01;92.00
46782;BME280;32541;46.298;11.506;2023-12-29T01:40:22;89950.41;;;2.04;92.18
46782;BME280;32541;46.298;11.506;2023-12-29T01:42:48;89949.66;;;2.03;92.13
46782;BME280;32541;46.298;11.506;2023-12-29T01:45:23;89952.72;;;2.13;92.21
46782;BME280;32541;46.298;11.506;2023-12-29T01:47:49;89951.91;;;2.18;91.88
46782;BME280;32541;46.298;11.506;2023-12-29T01:50:17;89935.53;;;2.23;91.63
46782;BME280;32541;46.298;11.506;2023-12-29T01:52:43;89937.94;;;2.27;91.34
46782;BME280;32541;46.298;11.506;2023-12-29T01:55:12;89942.94;;;2.23;92.06
46782;BME280;32541;46.298;11.506;2023-12-29T01:57:39;89937.00;;;2.24;92.36
46782;BME280;32541;46.298;11.506;2023-12-29T02:00:06;89935.66;;;2.31;92.38
46782;BME280;32541;46.298;11.506;2023-12-29T02:02:32;89939.72;;;2.38;92.26
46782;BME280;32541;46.298;11.506;2023-12-29T02:04:57;89935.34;;;2.35;92.78
46782;BME280;32541;46.298;11.506;2023-12-29T02:07:23;89931.38;;;2.36;93.19
46782;BME280;32541;46.298;11.506;2023-12-29T02:09:49;89928.06;;;2.43;93.00
46782;BME280;32541;46.298;11.506;2023-12-29T02:12:17;89923.34;;;2.30;94.23
46782;BME280;32541;46.298;11.506;2023-12-29T02:14:42;89914.13;;;2.07;95.63
46782;BME280;32541;46.298;11.506;2023-12-29T02:17:14;89910.22;;;2.02;94.25
46782;BME280;32541;46.298;11.506;2023-12-29T02:19:46;89914.59;;;1.92;93.27
46782;BME280;32541;46.298;11.506;2023-12-29T02:22:12;89909.38;;;1.94;93.44
46782;BME280;32541;46.298;11.506;2023-12-29T02:24:39;89906.47;;;1.92;93.60
46782;BME280;32541;46.298;11.506;2023-12-29T02:29:33;89907.03;;;2.17;92.67
46782;BME280;32541;46.298;11.506;2023-12-29T02:31:59;89903.81;;;2.18;92.18
46782;BME280;32541;46.298;11.506;2023-12-29T02:34:27;89900.66;;;2.14;92.60
46782;BME280;32541;46.298;11.506;2023-12-29T02:36:56;89900.78;;;2.22;92.16
46782;BME280;32541;46.298;11.506;2023-12-29T02:39:21;89903.50;;;2.22;92.21
46782;BME280;32541;46.298;11.506;2023-12-29T02:41:47;89899.97;;;2.27;92.12
46782;BME280;32541;46.298;11.506;2023-12-29T02:44:13;89897.97;;;2.28;91.75
46782;BME280;32541;46.298;11.506;2023-12-29T02:46:38;89892.13;;;2.23;92.08
46782;BME280;32541;46.298;11.506;2023-12-29T02:49:04;89892.34;;;2.26;92.05
46782;BME280;32541;46.298;11.506;2023-12-29T02:51:29;89889.00;;;2.33;91.68
46782;BME280;32541;46.298;11.506;2023-12-29T02:53:55;89892.56;;;2.41;91.77
46782;BME280;32541;46.298;11.506;2023-12-29T02:56:20;89887.66;;;2.39;92.27
46782;BME280;32541;46.298;11.506;2023-12-29T02:58:47;89879.09;;;2.35;93.04
46782;BME280;32541;46.298;11.506;2023-12-29T03:01:13;89881.72;;;2.41;92.95
46782;BME280;32541;46.298;11.506;2023-12-29T03:03:38;89871.81;;;2.43;93.49
46782;BME280;32541;46.298;11.506;2023-12-29T03:06:05;89873.56;;;2.41;93.58
46782;BME280;32541;46.298;11.506;2023-12-29T03:08:31;89874.19;;;2.34;94.42
46782;BME280;32541;46.298;11.506;2023-12-29T03:10:56;89867.06;;;2.17;96.99
46782;BME280;32541;46.298;11.506;2023-12-29T03:13:22;89864.25;;;2.10;94.42
46782;BME280;32541;46.298;11.506;2023-12-29T03:15:47;89855.75;;;1.87;95.86
46782;BME280;32541;46.298;11.506;2023-12-29T03:18:13;89856.09;;;1.97;94.17
46782;BME280;32541;46.298;11.506;2023-12-29T03:20:38;89847.66;;;2.00;93.07
46782;BME280;32541;46.298;11.506;2023-12-29T03:23:04;89836.91;;;2.08;91.79
46782;BME280;32541;46.298;11.506;2023-12-29T03:25:29;89836.81;;;2.00;90.96
46782;BME280;32541;46.298;11.506;2023-12-29T03:27:54;89833.25;;;1.92;91.68
46782;BME280;32541;46.298;11.506;2023-12-29T03:30:20;89823.84;;;1.93;91.64
46782;BME280;32541;46.298;11.506;2023-12-29T03:32:45;89819.69;;;1.92;91.75
46782;BME280;32541;46.298;11.506;2023-12-29T03:35:10;89811.66;;;2.00;91.48
46782;BME280;32541;46.298;11.506;2023-12-29T03:37:36;89815.41;;;1.97;91.60
46782;BME280;32541;46.298;11.506;2023-12-29T03:40:01;89816.03;;;2.03;91.38
46782;BME280;32541;46.298;11.506;2023-12-29T03:42:26;89820.19;;;1.91;91.83
46782;BME280;32541;46.298;11.506;2023-12-29T03:44:52;89808.94;;;1.87;92.31
46782;BME280;32541;46.298;11.506;2023-12-29T03:47:17;89822.84;;;2.09;91.23
46782;BME280;32541;46.298;11.506;2023-12-29T03:49:43;89818.34;;;1.99;91.46
46782;BME280;32541;46.298;11.506;2023-12-29T03:52:08;89816.53;;;1.88;92.67
46782;BME280;32541;46.298;11.506;2023-12-29T03:54:33;89811.97;;;1.83;93.47
46782;BME280;32541;46.298;11.506;2023-12-29T03:56:59;89822.56;;;1.81;94.09
46782;BME280;32541;46.298;11.506;2023-12-29T03:59:24;89821.63;;;1.79;94.63
46782;BME280;32541;46.298;11.506;2023-12-29T04:01:49;89808.31;;;1.81;94.85
46782;BME280;32541;46.298;11.506;2023-12-29T04:04:15;89826.34;;;1.91;94.13
46782;BME280;32541;46.298;11.506;2023-12-29T04:06:40;89819.69;;;1.92;93.11
46782;BME280;32541;46.298;11.506;2023-12-29T04:09:05;89824.88;;;1.77;93.56
46782;BME280;32541;46.298;11.506;2023-12-29T04:11:31;89820.50;;;1.74;94.21
46782;BME280;32541;46.298;11.506;2023-12-29T04:13:56;89822.56;;;1.68;94.60
46782;BME280;32541;46.298;11.506;2023-12-29T04:16:21;89824.44;;;1.73;94.57
46782;BME280;32541;46.298;11.506;2023-12-29T04:18:47;89816.84;;;1.72;94.85
46782;BME280;32541;46.298;11.506;2023-12-29T04:21:15;89819.75;;;1.74;94.95
46782;BME280;32541;46.298;11.506;2023-12-29T04:23:41;89828.72;;;1.68;94.76
46782;BME280;32541;46.298;11.506;2023-12-29T04:26:09;89827.38;;;1.75;95.17
46782;BME280;32541;46.298;11.506;2023-12-29T04:28:34;89825.91;;;1.74;94.83
46782;BME280;32541;46.298;11.506;2023-12-29T04:31:00;89827.38;;;1.75;94.80
46782;BME280;32541;46.298;11.506;2023-12-29T04:33:25;89829.06;;;1.78;94.76
46782;BME280;32541;46.298;11.506;2023-12-29T04:35:51;89825.59;;;1.78;94.97
46782;BME280;32541;46.298;11.506;2023-12-29T04:38:16;89823.63;;;1.78;95.02
46782;BME280;32541;46.298;11.506;2023-12-29T04:40:43;89821.22;;;1.75;94.93
46782;BME280;32541;46.298;11.506;2023-12-29T04:43:08;89827.06;;;1.79;94.77
46782;BME280;32541;46.298;11.506;2023-12-29T04:45:34;89823.84;;;1.80;94.70
46782;BME280;32541;46.298;11.506;2023-12-29T04:47:59;89820.94;;;1.78;95.26
46782;BME280;32541;46.298;11.506;2023-12-29T04:50:24;89829.06;;;1.78;95.45
46782;BME280;32541;46.298;11.506;2023-12-29T04:52:50;89829.06;;;1.78;95.33
46782;BME280;32541;46.298;11.506;2023-12-29T04:55:15;89833.94;;;1.80;95.21
46782;BME280;32541;46.298;11.506;2023-12-29T04:57:40;89837.91;;;1.79;95.26
46782;BME280;32541;46.298;11.506;2023-12-29T05:00:06;89835.09;;;1.84;95.12
46782;BME280;32541;46.298;11.506;2023-12-29T05:02:32;89840.13;;;1.93;94.19
46782;BME280;32541;46.298;11.506;2023-12-29T05:04:57;89826.00;;;1.82;94.06
46782;BME280;32541;46.298;11.506;2023-12-29T05:07:23;89828.00;;;1.81;93.96
46782;BME280;32541;46.298;11.506;2023-12-29T05:09:49;89828.81;;;1.76;93.84
46782;BME280;32541;46.298;11.506;2023-12-29T05:12:14;89827.44;;;1.69;94.54
46782;BME280;32541;46.298;11.506;2023-12-29T05:14:40;89820.34;;;1.66;94.55
46782;BME280;32541;46.298;11.506;2023-12-29T05:17:06;89828.19;;;1.70;94.23
46782;BME280;32541;46.298;11.506;2023-12-29T05:19:31;89826.94;;;1.71;93.89
46782;BME280;32541;46.298;11.506;2023-12-29T05:21:57;89830.47;;;1.66;93.85
46782;BME280;32541;46.298;11.506;2023-12-29T05:24:22;89824.19;;;1.58;94.00
46782;BME280;32541;46.298;11.506;2023-12-29T05:26:48;89826.81;;;1.63;93.86
46782;BME280;32541;46.298;11.506;2023-12-29T05:29:13;89829.50;;;1.63;93.36
46782;BME280;32541;46.298;11.506;2023-12-29T05:31:39;89833.41;;;1.68;92.95
46782;BME280;32541;46.298;11.506;2023-12-29T05:34:04;89834.72;;;1.61;92.68
46782;BME280;32541;46.298;11.506;2023-12-29T05:36:30;89838.47;;;1.58;92.73
46782;BME280;32541;46.298;11.506;2023-12-29T05:38:55;89847.94;;;1.52;92.82
46782;BME280;32541;46.298;11.506;2023-12-29T05:41:21;89838.56;;;1.53;92.78
46782;BME280;32541;46.298;11.506;2023-12-29T05:43:46;89826.13;;;1.44;93.58
46782;BME280;32541;46.298;11.506;2023-12-29T05:46:12;89838.22;;;1.43;93.87
46782;BME280;32541;46.298;11.506;2023-12-29T05:48:38;89835.00;;;1.45;93.77
46782;BME280;32541;46.298;11.506;2023-12-29T05:51:12;89832.66;;;1.36;94.29
46782;BME280;32541;46.298;11.506;2023-12-29T05:53:41;89834.94;;;1.32;94.28
46782;BME280;32541;46.298;11.506;2023-12-29T05:56:07;89844.94;;;1.37;94.08
46782;BME280;32541;46.298;11.506;2023-12-29T05:58:32;89843.28;;;1.34;94.12
46782;BME280;32541;46.298;11.506;2023-12-29T06:00:58;89834.44;;;1.33;93.72
46782;BME280;32541;46.298;11.506;2023-12-29T06:03:26;89842.97;;;1.37;93.69
46782;BME280;32541;46.298;11.506;2023-12-29T06:05:53;89847.91;;;1.39;93.89
46782;BME280;32541;46.298;11.506;2023-12-29T06:08:18;89845.41;;;1.41;93.50
46782;BME280;32541;46.298;11.506;2023-12-29T06:10:44;89836.81;;;1.37;93.92
46782;BME280;32541;46.298;11.506;2023-12-29T06:13:09;89838.09;;;1.36;93.89
46782;BME280;32541;46.298;11.506;2023-12-29T06:15:35;89846.81;;;1.29;94.43
46782;BME280;32541;46.298;11.506;2023-12-29T06:18:01;89849.97;;;1.14;95.54
46782;BME280;32541;46.298;11.506;2023-12-29T06:20:27;89842.56;;;0.96;96.59
46782;BME280;32541;46.298;11.506;2023-12-29T06:22:53;89850.78;;;1.09;96.09
46782;BME280;32541;46.298;11.506;2023-12-29T06:25:18;89852.09;;;1.02;96.41
46782;BME280;32541;46.298;11.506;2023-12-29T06:27:44;89850.63;;;1.01;97.70
46782;BME280;32541;46.298;11.506;2023-12-29T06:30:09;89848.66;;;1.02;97.10
46782;BME280;32541;46.298;11.506;2023-12-29T06:32:38;89846.31;;;1.11;97.63
46782;BME280;32541;46.298;11.506;2023-12-29T06:35:05;89841.84;;;1.14;96.21
46782;BME280;32541;46.298;11.506;2023-12-29T06:37:31;89844.19;;;1.04;96.19
46782;BME280;32541;46.298;11.506;2023-12-29T06:39:56;89849.88;;;1.20;95.94
46782;BME280;32541;46.298;11.506;2023-12-29T06:42:22;89847.25;;;1.14;94.76
46782;BME280;32541;46.298;11.506;2023-12-29T06:44:48;89838.41;;;1.13;95.01
46782;BME280;32541;46.298;11.506;2023-12-29T06:47:13;89841.72;;;1.06;94.93
46782;BME280;32541;46.298;11.506;2023-12-29T06:49:39;89837.31;;;1.03;94.93
46782;BME280;32541;46.298;11.506;2023-12-29T06:52:05;89842.41;;;1.07;94.58
46782;BME280;32541;46.298;11.506;2023-12-29T06:54:31;89836.06;;;1.04;94.66
46782;BME280;32541;46.298;11.506;2023-12-29T06:56:56;89839.22;;;1.08;94.38
46782;BME280;32541;46.298;11.506;2023-12-29T06:59:22;89836.06;;;1.04;94.16
46782;BME280;32541;46.298;11.506;2023-12-29T07:01:47;89840.91;;;1.11;94.08
46782;BME280;32541;46.298;11.506;2023-12-29T07:04:13;89845.19;;;1.01;93.99
46782;BME280;32541;46.298;11.506;2023-12-29T07:06:39;89839.00;;;1.06;94.12
46782;BME280;32541;46.298;11.506;2023-12-29T07:09:04;89841.25;;;1.02;94.12
46782;BME280;32541;46.298;11.506;2023-12-29T07:11:30;89834.97;;;0.94;95.02
46782;BME280;32541;46.298;11.506;2023-12-29T07:13:57;89842.38;;;0.94;94.75
46782;BME280;32541;46.298;11.506;2023-12-29T07:16:22;89834.53;;;0.90;95.01
46782;BME280;32541;46.298;11.506;2023-12-29T07:18:48;89833.50;;;0.93;94.29
46782;BME280;32541;46.298;11.506;2023-12-29T07:21:14;89838.63;;;0.97;94.35
46782;BME280;32541;46.298;11.506;2023-12-29T07:23:40;89832.13;;;1.05;94.72
46782;BME280;32541;46.298;11.506;2023-12-29T07:26:06;89828.88;;;1.07;94.01
46782;BME280;32541;46.298;11.506;2023-12-29T07:28:31;89831.09;;;1.08;94.26
46782;BME280;32541;46.298;11.506;2023-12-29T07:30:57;89828.81;;;1.13;93.42
46782;BME280;32541;46.298;11.506;2023-12-29T07:33:23;89830.84;;;1.25;92.94
46782;BME280;32541;46.298;11.506;2023-12-29T07:35:49;89834.94;;;1.32;91.06
46782;BME280;32541;46.298;11.506;2023-12-29T07:38:15;89831.00;;;1.14;92.28
46782;BME280;32541;46.298;11.506;2023-12-29T07:40:41;89831.91;;;1.03;93.01
46782;BME280;32541;46.298;11.506;2023-12-29T07:43:06;89836.72;;;1.10;92.78
46782;BME280;32541;46.298;11.506;2023-12-29T07:45:31;89842.03;;;1.16;92.49
46782;BME280;32541;46.298;11.506;2023-12-29T07:47:57;89840.31;;;1.19;92.94
46782;BME280;32541;46.298;11.506;2023-12-29T07:50:22;89842.69;;;1.22;92.67
46782;BME280;32541;46.298;11.506;2023-12-29T07:53:06;89848.28;;;1.30;92.57
46782;BME280;32541;46.298;11.506;2023-12-29T07:55:32;89848.75;;;1.47;92.10
46782;BME280;32541;46.298;11.506;2023-12-29T07:57:57;89845.00;;;1.50;91.47
46782;BME280;32541;46.298;11.506;2023-12-29T08:00:23;89843.94;;;1.72;90.78
46782;BME280;32541;46.298;11.506;2023-12-29T08:02:49;89855.34;;;1.83;90.51
46782;BME280;32541;46.298;11.506;2023-12-29T08:05:15;89850.16;;;1.98;89.47
46782;BME280;32541;46.298;11.506;2023-12-29T08:07:42;89850.28;;;2.32;88.34
46782;BME280;32541;46.298;11.506;2023-12-29T08:10:08;89847.44;;;3.03;85.38
46782;BME280;32541;46.298;11.506;2023-12-29T08:12:34;89843.28;;;4.39;81.34
46782;BME280;32541;46.298;11.506;2023-12-29T08:15:00;89848.56;;;5.96;71.63
46782;BME280;32541;46.298;11.506;2023-12-29T08:17:26;89841.03;;;7.10;68.16
46782;BME280;32541;46.298;11.506;2023-12-29T08:19:52;89847.88;;;7.81;64.76
46782;BME280;32541;46.298;11.506;2023-12-29T08:22:19;89850.88;;;8.82;59.57
46782;BME280;32541;46.298;11.506;2023-12-29T08:24:45;89848.91;;;9.51;55.97
46782;BME280;32541;46.298;11.506;2023-12-29T08:27:12;89854.47;;;10.22;54.29
46782;BME280;32541;46.298;11.506;2023-12-29T08:29:38;89851.44;;;10.81;51.50
46782;BME280;32541;46.298;11.506;2023-12-29T08:32:03;89849.28;;;10.89;50.44
46782;BME280;32541;46.298;11.506;2023-12-29T08:34:29;89842.41;;;11.16;49.30
46782;BME280;32541;46.298;11.506;2023-12-29T08:36:54;89851.06;;;11.03;48.22
46782;BME280;32541;46.298;11.506;2023-12-29T08:39:20;89853.59;;;10.82;48.55
46782;BME280;32541;46.298;11.506;2023-12-29T08:41:46;89851.38;;;10.62;48.56
46782;BME280;32541;46.298;11.506;2023-12-29T08:44:12;89854.06;;;10.52;49.03
46782;BME280;32541;46.298;11.506;2023-12-29T08:46:37;89854.28;;;10.37;49.42
46782;BME280;32541;46.298;11.506;2023-12-29T08:49:03;89859.97;;;10.48;48.78
46782;BME280;32541;46.298;11.506;2023-12-29T08:51:28;89859.88;;;10.56;49.18
46782;BME280;32541;46.298;11.506;2023-12-29T08:53:54;89867.19;;;10.44;48.42
46782;BME280;32541;46.298;11.506;2023-12-29T08:56:19;89868.00;;;10.27;48.41
46782;BME280;32541;46.298;11.506;2023-12-29T08:58:44;89864.41;;;9.73;49.55
46782;BME280;32541;46.298;11.506;2023-12-29T09:01:10;89873.53;;;9.41;51.01
46782;BME280;32541;46.298;11.506;2023-12-29T09:03:35;89877.59;;;9.23;51.16
46782;BME280;32541;46.298;11.506;2023-12-29T09:06:00;89877.19;;;9.44;50.69
46782;BME280;32541;46.298;11.506;2023-12-29T09:08:27;89874.09;;;9.57;50.63
46782;BME280;32541;46.298;11.506;2023-12-29T09:10:52;89884.94;;;9.55;50.77
46782;BME280;32541;46.298;11.506;2023-12-29T09:13:17;89899.69;;;9.25;50.85
46782;BME280;32541;46.298;11.506;2023-12-29T09:15:47;89885.47;;;8.77;50.93
46782;BME280;32541;46.298;11.506;2023-12-29T09:18:13;89892.66;;;8.73;52.36
46782;BME280;32541;46.298;11.506;2023-12-29T09:20:38;89885.56;;;8.37;52.83
46782;BME280;32541;46.298;11.506;2023-12-29T09:23:05;89891.50;;;8.19;53.13
46782;BME280;32541;46.298;11.506;2023-12-29T09:25:30;89886.28;;;8.38;53.51
46782;BME280;32541;46.298;11.506;2023-12-29T09:27:55;89888.31;;;7.98;53.17
46782;BME280;32541;46.298;11.506;2023-12-29T09:30:21;89884.06;;;7.09;56.39
46782;BME280;32541;46.298;11.506;2023-12-29T09:32:47;89887.22;;;5.79;59.81
46782;BME280;32541;46.298;11.506;2023-12-29T09:35:13;89880.50;;;4.93;63.49
46782;BME280;32541;46.298;11.506;2023-12-29T09:37:38;89889.56;;;4.39;66.80
46782;BME280;32541;46.298;11.506;2023-12-29T09:40:04;89874.31;;;4.93;67.91
46782;BME280;32541;46.298;11.506;2023-12-29T09:42:30;89879.59;;;5.27;64.99
46782;BME280;32541;46.298;11.506;2023-12-29T09:44:57;89881.06;;;5.28;64.70
46782;BME280;32541;46.298;11.506;2023-12-29T09:47:24;89879.75;;;4.93;66.94
46782;BME280;32541;46.298;11.506;2023-12-29T09:49:51;89867.56;;;5.73;65.16
46782;BME280;32541;46.298;11.506;2023-12-29T09:52:20;89860.97;;;6.42;62.25
46782;BME280;32541;46.298;11.506;2023-12-29T09:54:48;89869.31;;;7.05;59.07
46782;BME280;32541;46.298;11.506;2023-12-29T09:57:15;89864.19;;;7.09;59.97
46782;BME280;32541;46.298;11.506;2023-12-29T09:59:41;89874.06;;;6.89;59.14
46782;BME280;32541;46.298;11.506;2023-12-29T10:02:16;89863.13;;;5.91;61.23
46782;BME280;32541;46.298;11.506;2023-12-29T10:04:41;89870.09;;;5.20;64.82
46782;BME280;32541;46.298;11.506;2023-12-29T10:07:08;89862.13;;;5.22;65.70
46782;BME280;32541;46.298;11.506;2023-12-29T10:09:37;89864.91;;;4.66;67.30
46782;BME280;32541;46.298;11.506;2023-12-29T10:12:03;89861.59;;;4.88;66.50
46782;BME280;32541;46.298;11.506;2023-12-29T10:20:31;89850.78;;;4.46;68.75
46782;BME280;32541;46.298;11.506;2023-12-29T10:23:40;89848.47;;;4.51;68.57
46782;BME280;32541;46.298;11.506;2023-12-29T10:25:48;89854.47;;;4.85;68.55
46782;BME280;32541;46.298;11.506;2023-12-29T10:28:13;89843.00;;;5.15;67.41
46782;BME280;32541;46.298;11.506;2023-12-29T10:30:39;89833.53;;;5.59;64.80
46782;BME280;32541;46.298;11.506;2023-12-29T10:33:05;89837.81;;;5.98;63.96
46782;BME280;32541;46.298;11.506;2023-12-29T10:35:31;89833.28;;;6.53;62.21
46782;BME280;32541;46.298;11.506;2023-12-29T10:38:12;89833.19;;;7.14;60.13
46782;BME280;32541;46.298;11.506;2023-12-29T10:40:39;89828.03;;;7.33;58.88
46782;BME280;32541;46.298;11.506;2023-12-29T10:43:04;89825.25;;;7.41;57.89
46782;BME280;32541;46.298;11.506;2023-12-29T10:45:32;89826.94;;;6.58;61.04
46782;BME280;32541;46.298;11.506;2023-12-29T10:48:00;89824.00;;;6.03;62.31
46782;BME280;32541;46.298;11.506;2023-12-29T10:50:25;89813.63;;;6.09;62.65
46782;BME280;32541;46.298;11.506;2023-12-29T10:53:10;89814.53;;;6.57;61.83
46782;BME280;32541;46.298;11.506;2023-12-29T10:55:35;89810.16;;;6.54;61.43
46782;BME280;32541;46.298;11.506;2023-12-29T10:58:01;89802.53;;;6.53;61.42
46782;BME280;32541;46.298;11.506;2023-12-29T11:00:29;89796.38;;;7.07;60.26
46782;BME280;32541;46.298;11.506;2023-12-29T11:02:55;89794.69;;;6.27;62.69
46782;BME280;32541;46.298;11.506;2023-12-29T11:05:24;89795.63;;;6.37;62.83
46782;BME280;32541;46.298;11.506;2023-12-29T11:07:50;89798.34;;;6.22;62.72
46782;BME280;32541;46.298;11.506;2023-12-29T11:10:20;89795.09;;;6.23;63.17
46782;BME280;32541;46.298;11.506;2023-12-29T11:12:47;89782.88;;;6.47;62.27
46782;BME280;32541;46.298;11.506;2023-12-29T11:15:13;89777.38;;;6.54;62.25
46782;BME280;32541;46.298;11.506;2023-12-29T11:17:41;89779.72;;;6.65;62.60
46782;BME280;32541;46.298;11.506;2023-12-29T11:20:15;89765.75;;;6.46;63.27
46782;BME280;32541;46.298;11.506;2023-12-29T11:22:42;89775.16;;;6.76;62.21
46782;BME280;32541;46.298;11.506;2023-12-29T11:25:09;89768.66;;;6.03;63.40
46782;BME280;32541;46.298;11.506;2023-12-29T11:27:35;89767.78;;;6.23;64.96
46782;BME280;32541;46.298;11.506;2023-12-29T11:30:03;89762.69;;;6.04;64.95
46782;BME280;32541;46.298;11.506;2023-12-29T11:35:37;89761.56;;;6.30;63.50
46782;BME280;32541;46.298;11.506;2023-12-29T11:38:26;89751.00;;;6.49;62.29
46782;BME280;32541;46.298;11.506;2023-12-29T11:41:03;89750.63;;;6.45;62.20
46782;BME280;32541;46.298;11.506;2023-12-29T11:43:31;89737.44;;;6.82;62.22
46782;BME280;32541;46.298;11.506;2023-12-29T11:45:57;89734.28;;;6.93;61.57
46782;BME280;32541;46.298;11.506;2023-12-29T11:48:54;89728.66;;;6.83;61.79
46782;BME280;32541;46.298;11.506;2023-12-29T11:51:35;89735.88;;;6.56;62.20
46782;BME280;32541;46.298;11.506;2023-12-29T11:54:02;89735.91;;;6.96;62.76
46782;BME280;32541;46.298;11.506;2023-12-29T11:56:41;89739.53;;;6.98;60.53
46782;BME280;32541;46.298;11.506;2023-12-29T11:59:13;89737.00;;;6.93;62.80
46782;BME280;32541;46.298;11.506;2023-12-29T12:01:39;89735.63;;;6.77;63.44
46782;BME280;32541;46.298;11.506;2023-12-29T12:04:04;89734.16;;;6.76;64.31
46782;BME280;32541;46.298;11.506;2023-12-29T12:06:49;89722.34;;;7.13;61.84
46782;BME280;32541;46.298;11.506;2023-12-29T12:09:24;89719.03;;;7.22;61.42
46782;BME280;32541;46.298;11.506;2023-12-29T12:11:50;89715.41;;;7.19;61.86
46782;BME280;32541;46.298;11.506;2023-12-29T12:14:44;89709.25;;;7.04;61.59
46782;BME280;32541;46.298;11.506;2023-12-29T12:17:10;89706.38;;;7.02;61.38
46782;BME280;32541;46.298;11.506;2023-12-29T12:19:36;89700.19;;;7.34;61.28
46782;BME280;32541;46.298;11.506;2023-12-29T12:22:02;89698.22;;;7.83;59.45
46782;BME280;32541;46.298;11.506;2023-12-29T12:24:27;89703.72;;;7.83;59.12
46782;BME280;32541;46.298;11.506;2023-12-29T12:26:54;89704.03;;;7.63;59.67
46782;BME280;32541;46.298;11.506;2023-12-29T12:29:20;89696.78;;;7.82;60.35
46782;BME280;32541;46.298;11.506;2023-12-29T12:31:55;89689.53;;;7.77;59.52
46782;BME280;32541;46.298;11.506;2023-12-29T12:34:22;89683.25;;;8.26;59.96
46782;BME280;32541;46.298;11.506;2023-12-29T12:36:48;89682.00;;;8.27;58.91
46782;BME280;32541;46.298;11.506;2023-12-29T12:39:15;89676.00;;;8.46;58.76
46782;BME280;32541;46.298;11.506;2023-12-29T12:41:40;89684.34;;;8.31;57.66
46782;BME280;32541;46.298;11.506;2023-12-29T12:44:11;89671.53;;;8.33;58.01
46782;BME280;32541;46.298;11.506;2023-12-29T12:46:58;89677.41;;;8.30;58.31
46782;BME280;32541;46.298;11.506;2023-12-29T12:49:24;89676.72;;;7.55;60.74
46782;BME280;32541;46.298;11.506;2023-12-29T12:51:50;89681.47;;;7.79;59.02
46782;BME280;32541;46.298;11.506;2023-12-29T12:54:19;89676.34;;;7.83;59.46
46782;BME280;32541;46.298;11.506;2023-12-29T12:56:45;89669.69;;;8.11;60.05
46782;BME280;32541;46.298;11.506;2023-12-29T12:59:11;89675.88;;;7.45;61.15
46782;BME280;32541;46.298;11.506;2023-12-29T13:01:37;89668.59;;;7.40;61.66
46782;BME280;32541;46.298;11.506;2023-12-29T13:04:04;89672.50;;;7.54;60.91
46782;BME280;32541;46.298;11.506;2023-12-29T13:06:34;89671.22;;;8.05;60.22
46782;BME280;32541;46.298;11.506;2023-12-29T13:09:04;89667.44;;;8.17;59.75